createdAt,value
2019-05-03T00:00:44.684Z,0.00
2019-05-03T00:01:44.660Z,0.00
2019-05-03T00:02:44.635Z,0.00
2019-05-03T00:03:44.616Z,0.00
2019-05-03T00:04:44.598Z,0.00
2019-05-03T00:05:44.576Z,0.00
2019-05-03T00:06:44.549Z,0.00
2019-05-03T00:07:44.518Z,0.00
2019-05-03T00:08:44.499Z,0.00
2019-05-03T00:09:44.475Z,0.00
2019-05-03T00:10:44.457Z,0.00
2019-05-03T00:11:44.434Z,0.00
2019-05-03T00:12:44.401Z,0.00
2019-05-03T00:13:44.386Z,0.00
2019-05-03T00:14:44.361Z,0.00
2019-05-03T00:15:44.336Z,0.00
2019-05-03T00:16:44.313Z,0.00
2019-05-03T00:17:44.299Z,0.00
2019-05-03T00:18:44.257Z,0.00
2019-05-03T00:19:44.250Z,0.00
2019-05-03T00:20:44.213Z,0.00
2019-05-03T00:21:44.201Z,0.00
2019-05-03T00:22:44.174Z,0.00
2019-05-03T00:23:44.150Z,0.00
2019-05-03T00:24:44.124Z,0.00
2019-05-03T00:25:44.112Z,0.00
2019-05-03T00:26:44.088Z,0.00
2019-05-03T00:27:44.054Z,0.00
2019-05-03T00:28:44.040Z,0.00
2019-05-03T00:29:44.014Z,0.00
2019-05-03T00:30:43.987Z,0.00
2019-05-03T00:31:43.957Z,0.00
2019-05-03T00:32:43.935Z,0.00
2019-05-03T00:33:43.920Z,0.00
2019-05-03T00:34:46.270Z,0.00
2019-05-03T00:35:43.868Z,0.00
2019-05-03T00:36:43.858Z,0.00
2019-05-03T00:37:43.825Z,0.00
2019-05-03T00:38:43.802Z,0.00
2019-05-03T00:39:43.778Z,0.00
2019-05-03T00:40:43.763Z,0.00
2019-05-03T00:41:43.735Z,0.00
2019-05-03T00:42:43.711Z,0.00
2019-05-03T00:43:43.687Z,0.00
2019-05-03T00:44:43.661Z,0.00
2019-05-03T00:45:43.640Z,0.00
2019-05-03T00:46:51.813Z,0.00
2019-05-03T00:48:37.071Z,0.00
2019-05-03T00:49:36.973Z,0.00
2019-05-03T00:51:31.819Z,0.00
2019-05-03T00:52:31.820Z,0.00
2019-05-03T00:54:42.350Z,0.00
2019-05-03T00:55:42.001Z,0.00
2019-05-03T00:57:35.620Z,0.00
2019-05-03T00:58:35.574Z,0.00
2019-05-03T01:00:43.971Z,0.00
2019-05-03T01:01:43.565Z,0.00
2019-05-03T01:02:43.542Z,0.00
2019-05-03T01:03:52.653Z,0.00
2019-05-03T01:05:36.844Z,0.00
2019-05-03T01:06:44.474Z,0.00
2019-05-03T01:08:38.439Z,0.00
2019-05-03T01:09:31.757Z,0.00
2019-05-03T01:11:25.109Z,0.00
2019-05-03T01:12:25.047Z,0.00
2019-05-03T01:14:22.548Z,0.00
2019-05-03T01:15:21.538Z,0.00
2019-05-03T01:17:14.332Z,0.00
2019-05-03T01:18:14.267Z,0.00
2019-05-03T01:20:08.641Z,0.00
2019-05-03T01:21:08.611Z,0.00
2019-05-03T01:23:12.346Z,0.00
2019-05-03T01:24:02.961Z,0.00
2019-05-03T01:25:55.828Z,0.00
2019-05-03T01:26:55.805Z,0.00
2019-05-03T01:28:57.989Z,0.00
2019-05-03T01:29:57.819Z,0.00
2019-05-03T01:31:44.791Z,0.00
2019-05-03T01:32:44.510Z,0.00
2019-05-03T01:34:41.657Z,0.00
2019-05-03T01:35:40.406Z,0.00
2019-05-03T01:37:36.533Z,0.00
2019-05-03T01:38:36.232Z,0.00
2019-05-03T01:40:32.469Z,0.00
2019-05-03T01:41:32.222Z,0.00
2019-05-03T01:43:24.994Z,0.00
2019-05-03T01:44:24.930Z,0.00
2019-05-03T01:46:18.352Z,0.00
2019-05-03T01:47:18.303Z,0.00
2019-05-03T01:48:18.272Z,0.00
2019-05-03T01:49:18.254Z,0.00
2019-05-03T01:50:25.427Z,0.00
2019-05-03T01:52:27.183Z,0.00
2019-05-03T01:53:27.091Z,0.00
2019-05-03T01:54:27.062Z,0.00
2019-05-03T01:55:43.990Z,0.00
2019-05-03T01:57:22.058Z,0.00
2019-05-03T01:58:21.706Z,0.00
2019-05-03T02:00:22.444Z,0.00
2019-05-03T02:01:13.902Z,0.00
2019-05-03T02:03:06.815Z,0.00
2019-05-03T02:04:06.762Z,0.00
2019-05-03T02:06:00.145Z,0.00
2019-05-03T02:07:02.200Z,0.00
2019-05-03T02:08:55.512Z,0.00
2019-05-03T02:09:55.495Z,0.00
2019-05-03T02:11:52.577Z,0.00
2019-05-03T02:12:52.244Z,0.00
2019-05-03T02:14:44.785Z,0.00
2019-05-03T02:15:52.841Z,0.00
2019-05-03T02:17:38.179Z,0.00
2019-05-03T02:18:38.146Z,0.00
2019-05-03T02:20:32.540Z,0.00
2019-05-03T02:21:32.495Z,0.00
2019-05-03T02:22:32.466Z,0.00
2019-05-03T02:23:32.447Z,0.00
2019-05-03T02:24:32.844Z,0.00
2019-05-03T02:25:32.488Z,0.00
2019-05-03T02:26:32.381Z,0.00
2019-05-03T02:27:32.625Z,0.00
2019-05-03T02:28:32.669Z,0.00
2019-05-03T02:29:32.679Z,0.00
2019-05-03T02:30:33.248Z,0.00
2019-05-03T02:31:32.962Z,0.00
2019-05-03T02:32:33.222Z,0.00
2019-05-03T02:33:32.887Z,0.00
2019-05-03T02:34:32.855Z,0.00
2019-05-03T02:35:33.372Z,0.00
2019-05-03T02:36:33.739Z,0.00
2019-05-03T02:37:33.073Z,0.00
2019-05-03T02:38:33.742Z,0.00
2019-05-03T02:39:33.413Z,0.00
2019-05-03T02:40:33.909Z,0.00
2019-05-03T02:41:32.035Z,0.00
2019-05-03T02:42:32.015Z,0.00
2019-05-03T02:43:31.991Z,0.00
2019-05-03T02:44:31.967Z,0.00
2019-05-03T02:45:31.944Z,0.00
2019-05-03T02:46:31.935Z,0.00
2019-05-03T02:47:31.902Z,0.00
2019-05-03T02:48:31.885Z,0.00
2019-05-03T02:49:31.852Z,0.00
2019-05-03T02:50:31.835Z,0.00
2019-05-03T02:51:31.815Z,0.00
2019-05-03T02:52:31.782Z,0.00
2019-05-03T02:53:31.757Z,0.00
2019-05-03T02:54:31.736Z,0.00
2019-05-03T02:55:31.718Z,0.00
2019-05-03T02:56:31.688Z,0.00
2019-05-03T02:57:31.678Z,0.00
2019-05-03T02:58:31.644Z,0.00
2019-05-03T02:59:31.612Z,0.00
2019-05-03T03:00:31.594Z,0.00
2019-05-03T03:01:31.570Z,0.00
2019-05-03T03:02:31.547Z,0.00
2019-05-03T03:03:31.526Z,0.00
2019-05-03T03:04:31.504Z,0.00
2019-05-03T03:05:31.480Z,0.00
2019-05-03T03:06:31.456Z,0.00
2019-05-03T03:07:31.432Z,0.00
2019-05-03T03:08:33.383Z,0.00
2019-05-03T03:09:31.386Z,0.00
2019-05-03T03:10:31.362Z,0.00
2019-05-03T03:11:31.361Z,0.00
2019-05-03T03:12:31.316Z,0.00
2019-05-03T03:13:31.297Z,0.00
2019-05-03T03:14:31.270Z,0.00
2019-05-03T03:15:31.246Z,0.00
2019-05-03T03:16:31.223Z,0.00
2019-05-03T03:17:31.200Z,0.00
2019-05-03T03:18:31.172Z,0.00
2019-05-03T03:19:31.150Z,0.00
2019-05-03T03:20:31.127Z,4.00
2019-05-03T03:21:31.103Z,4.00
2019-05-03T03:22:31.080Z,4.00
2019-05-03T03:23:31.058Z,4.00
2019-05-03T03:24:31.030Z,4.00
2019-05-03T03:25:31.012Z,4.00
2019-05-03T03:26:39.193Z,8.00
2019-05-03T03:27:30.954Z,4.00
2019-05-03T03:28:30.935Z,8.00
2019-05-03T03:29:30.921Z,8.00
2019-05-03T03:30:30.891Z,12.00
2019-05-03T03:31:30.869Z,12.00
2019-05-03T03:32:30.846Z,12.00
2019-05-03T03:33:30.820Z,16.00
2019-05-03T03:34:30.812Z,12.00
2019-05-03T03:35:30.800Z,16.00
2019-05-03T03:36:46.037Z,20.00
2019-05-03T03:37:30.722Z,24.00
2019-05-03T03:38:30.696Z,28.00
2019-05-03T03:39:30.674Z,32.00
2019-05-03T03:40:30.654Z,40.00
2019-05-03T03:41:30.628Z,48.00
2019-05-03T03:42:30.602Z,60.00
2019-05-03T03:43:30.597Z,72.00
2019-05-03T03:44:30.549Z,88.00
2019-05-03T03:45:30.531Z,104.00
2019-05-03T03:46:32.238Z,124.00
2019-05-03T03:47:30.478Z,132.00
2019-05-03T03:48:30.457Z,144.00
2019-05-03T03:49:30.429Z,156.00
2019-05-03T03:50:30.406Z,172.00
2019-05-03T03:51:30.384Z,180.00
2019-05-03T03:52:30.361Z,200.00
2019-05-03T03:53:30.342Z,200.00
2019-05-03T03:54:30.311Z,208.00
2019-05-03T03:55:30.282Z,228.00
2019-05-03T03:56:30.263Z,248.00
2019-05-03T03:57:30.250Z,268.00
2019-05-03T03:58:30.212Z,288.00
2019-05-03T03:59:30.189Z,312.00
2019-05-03T04:00:30.168Z,336.00
2019-05-03T04:01:30.147Z,372.00
2019-05-03T04:02:30.118Z,416.00
2019-05-03T04:03:30.095Z,452.00
2019-05-03T04:04:30.072Z,464.00
2019-05-03T04:05:30.045Z,488.00
2019-05-03T04:06:30.031Z,508.00
2019-05-03T04:07:29.997Z,532.00
2019-05-03T04:08:29.978Z,564.00
2019-05-03T04:09:29.951Z,608.00
2019-05-03T04:10:29.941Z,640.00
2019-05-03T04:11:29.901Z,704.00
2019-05-03T04:12:29.879Z,764.00
2019-05-03T04:13:29.854Z,836.00
2019-05-03T04:14:29.829Z,912.00
2019-05-03T04:15:29.842Z,1000.00
2019-05-03T04:16:29.801Z,1104.00
2019-05-03T04:17:29.750Z,1244.00
2019-05-03T04:18:29.729Z,1384.00
2019-05-03T04:19:29.704Z,1504.00
2019-05-03T04:20:29.688Z,1632.00
2019-05-03T04:21:29.662Z,1748.00
2019-05-03T04:22:29.635Z,1872.00
2019-05-03T04:23:29.606Z,1992.00
2019-05-03T04:24:29.586Z,2056.00
2019-05-03T04:25:29.562Z,2152.00
2019-05-03T04:26:30.178Z,2212.00
2019-05-03T04:27:29.520Z,2288.00
2019-05-03T04:28:29.491Z,2404.00
2019-05-03T04:29:29.468Z,2572.00
2019-05-03T04:30:29.470Z,2616.00
2019-05-03T04:31:29.425Z,2636.00
2019-05-03T04:32:29.389Z,2680.00
2019-05-03T04:33:29.379Z,2796.00
2019-05-03T04:34:29.345Z,2828.00
2019-05-03T04:35:29.320Z,2856.00
2019-05-03T04:36:29.297Z,3048.00
2019-05-03T04:37:29.272Z,3316.00
2019-05-03T04:38:29.251Z,3736.00
2019-05-03T04:39:29.220Z,3984.00
2019-05-03T04:40:29.193Z,4368.00
2019-05-03T04:41:29.173Z,4664.00
2019-05-03T04:42:29.141Z,4704.00
2019-05-03T04:43:29.138Z,4620.00
2019-05-03T04:44:29.100Z,4500.00
2019-05-03T04:45:29.079Z,4312.00
2019-05-03T04:46:29.052Z,4184.00
2019-05-03T04:47:29.023Z,4232.00
2019-05-03T04:48:29.007Z,4252.00
2019-05-03T04:49:28.980Z,4196.00
2019-05-03T04:50:28.970Z,3980.00
2019-05-03T04:51:28.944Z,3440.00
2019-05-03T04:52:28.924Z,3360.00
2019-05-03T04:53:28.891Z,3544.00
2019-05-03T04:54:28.865Z,3544.00
2019-05-03T04:55:28.839Z,3636.00
2019-05-03T04:56:36.490Z,3924.00
2019-05-03T04:58:22.196Z,4644.00
2019-05-03T04:59:22.148Z,5252.00
2019-05-03T05:01:15.911Z,6548.00
2019-05-03T05:02:16.053Z,6904.00
2019-05-03T05:04:11.546Z,8004.00
2019-05-03T05:05:11.474Z,8928.00
2019-05-03T05:07:07.254Z,8424.00
2019-05-03T05:08:07.226Z,8996.00
2019-05-03T05:10:05.167Z,7400.00
2019-05-03T05:11:05.775Z,9004.00
2019-05-03T05:12:56.693Z,6508.00
2019-05-03T05:13:56.665Z,6792.00
2019-05-03T05:15:51.327Z,7296.00
2019-05-03T05:16:51.297Z,7632.00
2019-05-03T05:18:47.314Z,9220.00
2019-05-03T05:19:47.255Z,9080.00
2019-05-03T05:21:41.557Z,8296.00
2019-05-03T05:22:41.529Z,6664.00
2019-05-03T05:24:38.457Z,5740.00
2019-05-03T05:25:38.412Z,5460.00
2019-05-03T05:27:34.591Z,5580.00
2019-05-03T05:28:35.464Z,6252.00
2019-05-03T05:30:28.425Z,8100.00
2019-05-03T05:31:28.164Z,9948.00
2019-05-03T05:33:30.225Z,9652.00
2019-05-03T05:34:24.457Z,9148.00
2019-05-03T05:36:15.890Z,9928.00
2019-05-03T05:37:15.843Z,9480.00
2019-05-03T05:39:10.483Z,5184.00
2019-05-03T05:40:10.219Z,3888.00
2019-05-03T05:42:04.537Z,4732.00
2019-05-03T05:43:04.874Z,5700.00
2019-05-03T05:44:11.182Z,7308.00
2019-05-03T05:46:05.631Z,8252.00
2019-05-03T05:46:57.889Z,8280.00
2019-05-03T05:48:51.271Z,8372.00
2019-05-03T05:49:51.233Z,8512.00
2019-05-03T05:50:51.187Z,8304.00
2019-05-03T05:51:51.172Z,7624.00
2019-05-03T05:52:51.165Z,7468.00
2019-05-03T05:53:51.120Z,7816.00
2019-05-03T05:54:51.102Z,8688.00
2019-05-03T05:55:51.073Z,10716.00
2019-05-03T05:56:51.054Z,11572.00
2019-05-03T05:58:01.954Z,10320.00
2019-05-03T05:58:51.004Z,9144.00
2019-05-03T05:59:50.992Z,9460.00
2019-05-03T06:00:50.966Z,11108.00
2019-05-03T06:01:50.939Z,11920.00
2019-05-03T06:02:50.941Z,11824.00
2019-05-03T06:03:50.894Z,11524.00
2019-05-03T06:04:50.870Z,11160.00
2019-05-03T06:05:50.845Z,10940.00
2019-05-03T06:06:50.841Z,10664.00
2019-05-03T06:07:50.810Z,10796.00
2019-05-03T06:08:50.778Z,11700.00
2019-05-03T06:09:50.755Z,12320.00
2019-05-03T06:10:50.738Z,11728.00
2019-05-03T06:11:50.715Z,11376.00
2019-05-03T06:12:50.688Z,13120.00
2019-05-03T06:13:50.667Z,14264.00
2019-05-03T06:14:50.662Z,15864.00
2019-05-03T06:15:50.622Z,17280.00
2019-05-03T06:16:50.597Z,17280.00
2019-05-03T06:17:50.576Z,18112.00
2019-05-03T06:18:50.558Z,16520.00
2019-05-03T06:19:50.542Z,16276.00
2019-05-03T06:20:50.525Z,15588.00
2019-05-03T06:21:50.493Z,14624.00
2019-05-03T06:22:50.464Z,13888.00
2019-05-03T06:23:50.455Z,14140.00
2019-05-03T06:24:51.409Z,14812.00
2019-05-03T06:25:50.404Z,15076.00
2019-05-03T06:26:50.377Z,15520.00
2019-05-03T06:27:50.374Z,15912.00
2019-05-03T06:28:50.330Z,16392.00
2019-05-03T06:29:50.314Z,16844.00
2019-05-03T06:30:50.299Z,16348.00
2019-05-03T06:31:50.269Z,16136.00
2019-05-03T06:32:50.252Z,15672.00
2019-05-03T06:33:52.438Z,15720.00
2019-05-03T06:34:50.220Z,15696.00
2019-05-03T06:35:50.182Z,15396.00
2019-05-03T06:36:51.519Z,15700.00
2019-05-03T06:37:50.139Z,16348.00
2019-05-03T06:38:50.120Z,16736.00
2019-05-03T06:39:50.097Z,17408.00
2019-05-03T06:40:50.568Z,18688.00
2019-05-03T06:41:50.048Z,19040.00
2019-05-03T06:42:54.412Z,18944.00
2019-05-03T06:43:50.005Z,19104.00
2019-05-03T06:44:49.993Z,19328.00
2019-05-03T06:45:50.578Z,18400.00
2019-05-03T06:46:49.942Z,19840.00
2019-05-03T06:47:50.181Z,20896.00
2019-05-03T06:48:49.916Z,21984.00
2019-05-03T06:49:49.882Z,21920.00
2019-05-03T06:50:49.874Z,21344.00
2019-05-03T06:51:50.050Z,21376.00
2019-05-03T06:52:49.817Z,19040.00
2019-05-03T06:53:50.686Z,15880.00
2019-05-03T06:54:49.784Z,14196.00
2019-05-03T06:55:49.780Z,14676.00
2019-05-03T06:56:49.741Z,16156.00
2019-05-03T06:57:49.888Z,15560.00
2019-05-03T06:58:49.705Z,27200.00
2019-05-03T06:59:49.676Z,20352.00
2019-05-03T07:00:49.656Z,42112.00
2019-05-03T07:01:49.622Z,20448.00
2019-05-03T07:02:49.603Z,18208.00
2019-05-03T07:03:49.578Z,16592.00
2019-05-03T07:04:49.598Z,26496.00
2019-05-03T07:05:49.543Z,78464.00
2019-05-03T07:06:49.518Z,34560.00
2019-05-03T07:07:49.498Z,36416.00
2019-05-03T07:08:49.477Z,27520.00
2019-05-03T07:09:49.454Z,24544.00
2019-05-03T07:10:49.505Z,23744.00
2019-05-03T07:11:49.420Z,20288.00
2019-05-03T07:12:49.404Z,18624.00
2019-05-03T07:13:49.374Z,34144.00
2019-05-03T07:14:50.503Z,24480.00
2019-05-03T07:15:49.333Z,24096.00
2019-05-03T07:16:49.314Z,25568.00
2019-05-03T07:17:49.299Z,27936.00
2019-05-03T07:18:49.287Z,35040.00
2019-05-03T07:19:49.246Z,34784.00
2019-05-03T07:20:49.306Z,27552.00
2019-05-03T07:21:49.369Z,28736.00
2019-05-03T07:22:49.258Z,34624.00
2019-05-03T07:23:49.238Z,58624.00
2019-05-03T07:24:49.224Z,37024.00
2019-05-03T07:25:49.181Z,35456.00
2019-05-03T07:26:49.168Z,36704.00
2019-05-03T07:27:49.159Z,37760.00
2019-05-03T07:28:50.184Z,31648.00
2019-05-03T07:29:49.907Z,25312.00
2019-05-03T07:30:49.084Z,22336.00
2019-05-03T07:31:49.089Z,21248.00
2019-05-03T07:32:49.005Z,21280.00
2019-05-03T07:33:48.978Z,20704.00
2019-05-03T07:34:48.962Z,20512.00
2019-05-03T07:35:48.943Z,20224.00
2019-05-03T07:36:48.916Z,19488.00
2019-05-03T07:37:48.900Z,19072.00
2019-05-03T07:38:48.892Z,20000.00
2019-05-03T07:39:48.887Z,20960.00
2019-05-03T07:40:48.865Z,20704.00
2019-05-03T07:41:48.832Z,20544.00
2019-05-03T07:42:48.798Z,19424.00
2019-05-03T07:43:48.779Z,18304.00
2019-05-03T07:44:48.799Z,17248.00
2019-05-03T07:45:48.803Z,17408.00
2019-05-03T07:46:48.722Z,16736.00
2019-05-03T07:47:48.701Z,14884.00
2019-05-03T07:48:48.792Z,13244.00
2019-05-03T07:49:48.661Z,11696.00
2019-05-03T07:50:48.644Z,10108.00
2019-05-03T07:51:48.630Z,9084.00
2019-05-03T07:52:48.663Z,8404.00
2019-05-03T07:53:48.581Z,7784.00
2019-05-03T07:54:48.637Z,7060.00
2019-05-03T07:55:48.548Z,6332.00
2019-05-03T07:56:48.534Z,5880.00
2019-05-03T07:57:48.557Z,5704.00
2019-05-03T07:58:59.744Z,5996.00
2019-05-03T07:59:48.507Z,6792.00
2019-05-03T08:00:48.572Z,7428.00
2019-05-03T08:01:48.449Z,8288.00
2019-05-03T08:02:48.403Z,9844.00
2019-05-03T08:03:48.397Z,11408.00
2019-05-03T08:04:48.454Z,12824.00
2019-05-03T08:05:48.335Z,13552.00
2019-05-03T08:06:48.316Z,12936.00
2019-05-03T08:07:48.291Z,11556.00
2019-05-03T08:08:48.265Z,9648.00
2019-05-03T08:09:55.899Z,8252.00
2019-05-03T08:11:44.426Z,7188.00
2019-05-03T08:12:42.668Z,6748.00
2019-05-03T08:14:37.046Z,6216.00
2019-05-03T08:15:45.115Z,6232.00
2019-05-03T08:17:30.463Z,6144.00
2019-05-03T08:18:30.405Z,6112.00
2019-05-03T08:19:30.398Z,6196.00
2019-05-03T08:20:38.542Z,6420.00
2019-05-03T08:22:31.977Z,7492.00
2019-05-03T08:23:30.035Z,7688.00
2019-05-03T08:25:18.062Z,7620.00
2019-05-03T08:26:18.056Z,7828.00
2019-05-03T08:28:11.402Z,8368.00
2019-05-03T08:29:16.258Z,8372.00
2019-05-03T08:31:04.820Z,8240.00
2019-05-03T08:32:05.050Z,8968.00
2019-05-03T08:33:58.535Z,9968.00
2019-05-03T08:34:57.770Z,9576.00
2019-05-03T08:35:57.745Z,8900.00
2019-05-03T08:36:57.733Z,7984.00
2019-05-03T08:37:57.726Z,7616.00
2019-05-03T08:39:06.959Z,7604.00
2019-05-03T08:40:51.092Z,6188.00
2019-05-03T08:41:51.056Z,5896.00
2019-05-03T08:43:44.727Z,6152.00
2019-05-03T08:44:45.311Z,5828.00
2019-05-03T08:46:37.757Z,6184.00
2019-05-03T08:47:37.701Z,6956.00
2019-05-03T08:49:31.067Z,8276.00
2019-05-03T08:50:38.678Z,8740.00
2019-05-03T08:52:34.754Z,9916.00
2019-05-03T08:53:25.663Z,10120.00
2019-05-03T08:55:19.288Z,11156.00
2019-05-03T08:56:19.316Z,12164.00
2019-05-03T08:58:15.486Z,13584.00
2019-05-03T08:59:26.788Z,14368.00
2019-05-03T09:01:06.089Z,17344.00
2019-05-03T09:02:13.916Z,19072.00
2019-05-03T09:03:05.911Z,20960.00
2019-05-03T09:04:05.988Z,23328.00
2019-05-03T09:05:05.858Z,25792.00
2019-05-03T09:06:05.859Z,28032.00
2019-05-03T09:07:05.801Z,29280.00
2019-05-03T09:08:05.908Z,30464.00
2019-05-03T09:09:05.758Z,32640.00
2019-05-03T09:10:05.747Z,37632.00
2019-05-03T09:11:05.718Z,55744.00
2019-05-03T09:12:05.698Z,59008.00
2019-05-03T09:13:06.544Z,75872.00
2019-05-03T09:14:05.643Z,53120.00
2019-05-03T09:15:05.623Z,43136.00
2019-05-03T09:16:05.652Z,38400.00
2019-05-03T09:17:05.577Z,37472.00
2019-05-03T09:18:05.584Z,39936.00
2019-05-03T09:19:05.765Z,42880.00
2019-05-03T09:20:05.541Z,47072.00
2019-05-03T09:21:05.498Z,30720.00
2019-05-03T09:22:06.191Z,25440.00
2019-05-03T09:23:05.604Z,22560.00
2019-05-03T09:24:05.434Z,21248.00
2019-05-03T09:25:05.417Z,21952.00
2019-05-03T09:26:05.470Z,26208.00
2019-05-03T09:27:05.639Z,35872.00
2019-05-03T09:28:05.355Z,39904.00
2019-05-03T09:29:05.652Z,36192.00
2019-05-03T09:30:05.330Z,38336.00
2019-05-03T09:31:05.304Z,43808.00
2019-05-03T09:32:05.356Z,45536.00
2019-05-03T09:33:08.665Z,90464.00
2019-05-03T09:34:08.102Z,111008.00
2019-05-03T09:35:05.570Z,53408.00
2019-05-03T09:36:05.457Z,149728.00
2019-05-03T09:37:05.183Z,150720.00
2019-05-03T09:38:05.843Z,128576.00
2019-05-03T09:39:05.179Z,104032.00
2019-05-03T09:40:05.132Z,148608.00
2019-05-03T09:41:05.316Z,143008.00
2019-05-03T09:42:05.151Z,140928.00
2019-05-03T09:43:05.080Z,137792.00
2019-05-03T09:44:05.075Z,136640.00
2019-05-03T09:45:05.068Z,136768.00
2019-05-03T09:46:05.252Z,138144.00
2019-05-03T09:47:05.624Z,141184.00
2019-05-03T09:48:05.660Z,101408.00
2019-05-03T09:49:13.304Z,141088.00
2019-05-03T09:50:04.998Z,150144.00
2019-05-03T09:51:05.232Z,56384.00
2019-05-03T09:52:07.987Z,77440.00
2019-05-03T09:53:05.620Z,46016.00
2019-05-03T09:54:05.363Z,34208.00
2019-05-03T09:55:05.294Z,33792.00
2019-05-03T09:56:05.137Z,34176.00
2019-05-03T09:57:05.799Z,30592.00
2019-05-03T09:58:05.560Z,27936.00
2019-05-03T09:59:05.395Z,27808.00
2019-05-03T10:00:05.025Z,32352.00
2019-05-03T10:01:06.241Z,27520.00
2019-05-03T10:02:05.131Z,30336.00
2019-05-03T10:03:05.627Z,36736.00
2019-05-03T10:04:05.493Z,39744.00
2019-05-03T10:05:04.793Z,36800.00
2019-05-03T10:06:04.786Z,54624.00
2019-05-03T10:07:04.777Z,120128.00
2019-05-03T10:08:05.210Z,38048.00
2019-05-03T10:09:05.395Z,36128.00
2019-05-03T10:10:05.713Z,27840.00
2019-05-03T10:11:05.482Z,25344.00
2019-05-03T10:12:05.464Z,29216.00
2019-05-03T10:13:12.954Z,45568.00
2019-05-03T10:14:04.782Z,57824.00
2019-05-03T10:15:06.521Z,118432.00
2019-05-03T10:16:06.038Z,143936.00
2019-05-03T10:17:05.428Z,143904.00
2019-05-03T10:18:10.285Z,62176.00
2019-05-03T10:19:04.629Z,128672.00
2019-05-03T10:20:04.576Z,44928.00
2019-05-03T10:21:05.271Z,164896.00
2019-05-03T10:22:05.770Z,167488.00
2019-05-03T10:23:05.312Z,111392.00
2019-05-03T10:24:05.831Z,47264.00
2019-05-03T10:25:04.988Z,150368.00
2019-05-03T10:26:05.104Z,61024.00
2019-05-03T10:27:05.612Z,86336.00
2019-05-03T10:28:05.781Z,47328.00
2019-05-03T10:29:05.413Z,36704.00
2019-05-03T10:30:12.945Z,34016.00
2019-05-03T10:31:07.436Z,38048.00
2019-05-03T10:32:04.431Z,41088.00
2019-05-03T10:33:06.015Z,34464.00
2019-05-03T10:34:05.760Z,32160.00
2019-05-03T10:35:05.699Z,30816.00
2019-05-03T10:36:05.481Z,27360.00
2019-05-03T10:37:05.215Z,23040.00
2019-05-03T10:38:05.812Z,21248.00
2019-05-03T10:39:04.800Z,22592.00
2019-05-03T10:40:07.731Z,28256.00
2019-05-03T10:41:05.809Z,77120.00
2019-05-03T10:42:04.862Z,32448.00
2019-05-03T10:43:04.867Z,46592.00
2019-05-03T10:44:06.038Z,34592.00
2019-05-03T10:45:04.697Z,33792.00
2019-05-03T10:46:05.161Z,40064.00
2019-05-03T10:47:05.464Z,110208.00
2019-05-03T10:48:04.828Z,36416.00
2019-05-03T10:49:05.799Z,36480.00
2019-05-03T10:50:04.676Z,38176.00
2019-05-03T10:51:04.713Z,40864.00
2019-05-03T10:52:05.623Z,35392.00
2019-05-03T10:53:05.209Z,35584.00
2019-05-03T10:54:05.200Z,37056.00
2019-05-03T10:55:05.348Z,37632.00
2019-05-03T10:56:05.070Z,40128.00
2019-05-03T10:57:05.303Z,43904.00
2019-05-03T10:58:05.303Z,51680.00
2019-05-03T10:59:05.983Z,111552.00
2019-05-03T11:00:05.042Z,60000.00
2019-05-03T11:01:04.958Z,98464.00
2019-05-03T11:02:04.000Z,161568.00
2019-05-03T11:03:05.306Z,163392.00
2019-05-03T11:04:05.301Z,57792.00
2019-05-03T11:05:05.210Z,46304.00
2019-05-03T11:06:05.513Z,58560.00
2019-05-03T11:07:05.469Z,68288.00
2019-05-03T11:08:04.993Z,45120.00
2019-05-03T11:09:05.648Z,45792.00
2019-05-03T11:10:05.298Z,135040.00
2019-05-03T11:11:05.924Z,103392.00
2019-05-03T11:12:05.356Z,35232.00
2019-05-03T11:13:05.879Z,29952.00
2019-05-03T11:14:05.505Z,31328.00
2019-05-03T11:15:03.822Z,37248.00
2019-05-03T11:16:05.590Z,102336.00
2019-05-03T11:17:05.518Z,41088.00
2019-05-03T11:18:05.569Z,119904.00
2019-05-03T11:19:05.490Z,57472.00
2019-05-03T11:20:05.294Z,141408.00
2019-05-03T11:21:05.222Z,135456.00
2019-05-03T11:22:05.477Z,145056.00
2019-05-03T11:23:05.965Z,39936.00
2019-05-03T11:24:03.706Z,35104.00
2019-05-03T11:25:05.152Z,44032.00
2019-05-03T11:26:03.674Z,42176.00
2019-05-03T11:27:03.666Z,43232.00
2019-05-03T11:28:04.888Z,100000.00
2019-05-03T11:29:05.175Z,40064.00
2019-05-03T11:30:04.949Z,36256.00
2019-05-03T11:31:05.029Z,33376.00
2019-05-03T11:32:09.494Z,30048.00
2019-05-03T11:33:03.623Z,26560.00
2019-05-03T11:34:03.594Z,23328.00
2019-05-03T11:35:04.589Z,25312.00
2019-05-03T11:36:04.423Z,31808.00
2019-05-03T11:37:04.949Z,35488.00
2019-05-03T11:38:05.460Z,28672.00
2019-05-03T11:39:04.944Z,25216.00
2019-05-03T11:40:05.108Z,24384.00
2019-05-03T11:41:04.857Z,23520.00
2019-05-03T11:42:04.693Z,21632.00
2019-05-03T11:43:04.628Z,20672.00
2019-05-03T11:44:03.969Z,22464.00
2019-05-03T11:45:03.425Z,27264.00
2019-05-03T11:46:03.400Z,51456.00
2019-05-03T11:47:05.621Z,44544.00
2019-05-03T11:48:12.021Z,39360.00
2019-05-03T11:49:57.832Z,33888.00
2019-05-03T11:50:57.794Z,87520.00
2019-05-03T11:52:51.201Z,70592.00
2019-05-03T11:53:51.164Z,135680.00
2019-05-03T11:55:47.302Z,117088.00
2019-05-03T11:56:47.280Z,144768.00
2019-05-03T11:58:40.806Z,138400.00
2019-05-03T11:59:40.786Z,134944.00
2019-05-03T12:01:44.932Z,136480.00
2019-05-03T12:02:35.118Z,127552.00
2019-05-03T12:04:38.327Z,116640.00
2019-05-03T12:05:30.540Z,105376.00
2019-05-03T12:06:30.506Z,116800.00
2019-05-03T12:07:39.018Z,121760.00
2019-05-03T12:08:30.477Z,126304.00
2019-05-03T12:09:30.469Z,128768.00
2019-05-03T12:10:44.670Z,129440.00
2019-05-03T12:11:30.468Z,61440.00
2019-05-03T12:12:30.439Z,29888.00
2019-05-03T12:13:38.113Z,27872.00
2019-05-03T12:15:27.693Z,28192.00
2019-05-03T12:17:08.575Z,26816.00
2019-05-03T12:18:21.840Z,22304.00
2019-05-03T12:19:28.224Z,20384.00
2019-05-03T12:21:17.958Z,19936.00
2019-05-03T12:22:16.725Z,20800.00
2019-05-03T12:23:17.067Z,21568.00
2019-05-03T12:24:16.885Z,22336.00
2019-05-03T12:25:16.893Z,23360.00
2019-05-03T12:26:17.507Z,24832.00
2019-05-03T12:27:16.439Z,26848.00
2019-05-03T12:28:16.167Z,28864.00
2019-05-03T12:29:16.184Z,30080.00
2019-05-03T12:30:16.075Z,30144.00
2019-05-03T12:31:29.694Z,29600.00
2019-05-03T12:32:16.047Z,29056.00
2019-05-03T12:33:16.028Z,30112.00
2019-05-03T12:34:16.075Z,130368.00
2019-05-03T12:35:16.042Z,52960.00
2019-05-03T12:36:15.979Z,89024.00
2019-05-03T12:37:15.963Z,60448.00
2019-05-03T12:38:16.610Z,118048.00
2019-05-03T12:39:26.770Z,48320.00
2019-05-03T12:40:15.929Z,54944.00
2019-05-03T12:41:15.967Z,48320.00
2019-05-03T12:42:18.749Z,55840.00
2019-05-03T12:43:15.877Z,47424.00
2019-05-03T12:44:15.855Z,57504.00
2019-05-03T12:45:15.843Z,47968.00
2019-05-03T12:46:16.836Z,43680.00
2019-05-03T12:47:15.815Z,43328.00
2019-05-03T12:48:15.816Z,37280.00
2019-05-03T12:49:15.783Z,33856.00
2019-05-03T12:50:15.820Z,31200.00
2019-05-03T12:51:15.955Z,28544.00
2019-05-03T12:52:16.596Z,26112.00
2019-05-03T12:53:15.752Z,23680.00
2019-05-03T12:54:15.720Z,21632.00
2019-05-03T12:55:15.696Z,20128.00
2019-05-03T12:56:22.631Z,19104.00
2019-05-03T12:57:15.682Z,18784.00
2019-05-03T12:58:15.648Z,18976.00
2019-05-03T12:59:16.216Z,19520.00
2019-05-03T13:00:15.709Z,20096.00
2019-05-03T13:01:15.801Z,21120.00
2019-05-03T13:02:15.630Z,22432.00
2019-05-03T13:03:15.565Z,23520.00
2019-05-03T13:04:15.649Z,24032.00
2019-05-03T13:05:15.581Z,24352.00
2019-05-03T13:06:15.517Z,24448.00
2019-05-03T13:07:15.502Z,24192.00
2019-05-03T13:08:15.480Z,23392.00
2019-05-03T13:09:16.026Z,22016.00
2019-05-03T13:10:21.815Z,20640.00
2019-05-03T13:11:15.466Z,19616.00
2019-05-03T13:12:15.470Z,19040.00
2019-05-03T13:13:15.408Z,19264.00
2019-05-03T13:14:15.757Z,20480.00
2019-05-03T13:15:15.356Z,22368.00
2019-05-03T13:16:15.424Z,25824.00
2019-05-03T13:17:15.329Z,37120.00
2019-05-03T13:18:15.693Z,44224.00